KHON/HON METAR and TAF weather

Enter ICAO airport designator
Station Type Date Time Source
KHON METAR 2022/01/18 06:55 UTC NOAA

KHON 180655Z AUTO 17008KT 10SM CLR M01/M04 A2962 RMK AO2 SLP042 T10111039


Station Type Date Time Source
KHON Decoded METAR 2022/01/18 06:55 UTC NOAA

HURON REGIONAL AIRPORT, SD, United States (KHON) 44-23N 098-14W 390M
Jan 18, 2022 - 01:55 AM EST / 2022.01.18 0655 UTC
Wind: from the S (170 degrees) at 9 MPH (8 KT):0
Visibility: 10 mile(s):0
Sky conditions: clear
Temperature: 30.0 F (-1.1 C)
Windchill: 21 F (-6 C):1
Dew Point: 25.0 F (-3.9 C)
Relative Humidity: 81%
Pressure (altimeter): 29.62 in. Hg (1003 hPa)
ob: KHON 180655Z AUTO 17008KT 10SM CLR M01/M04 A2962 RMK AO2 SLP042 T10111039
cycle: 7

Station Type Date Time Source
KHON TAF 2022/01/18 06:22 UTC NOAA

TAF KHON 180520Z 1806/1906 17004KT P6SM SCT120
FM181000 20006KT P6SM BKN200 WS020/25030KT
FM181300 25008KT P6SM SCT250 WS020/30040KT
FM181700 31017G28KT P6SM BKN250
FM182000 33022G32KT P6SM SCT025 BKN100

Example: see airport list